Barker, New York
Current Conditions -  °F | °C
As of 6:53 PM on Monday 20 Oct 2014 (Local Time) from KIAG Reporting Station
Light Rain Light Rain  
Wind Chill: 54°   Ceiling: 3300
Heat Index: 54°   Visibility: 10mi
Dew Point: 46°   Wind: 7mph
Humidity: 75%   Direction: 190°S
Pressure: 29.8"   Gusts: NA
Location:  43.33°N, 78.55°W
Report Text: KIAG 202253Z 19006KT 10SM -RA OVC033 12/08 A2980 RMK AO2 SLP098 P0000 T01220078
Loading
Personal Weather Stations






























Interactive Weather Map
Tropical Storm Tracking
New forecast layout! Learn more

10-Day Weather Forecast

Advertisements
Track Severe Weather on mobile